Time;durP1;ratioP1;P1;durP2;ratioP2;P2;SDS_P1;SDS_P2;PMS_P1;PMS_P2;Temp;Humidity;BMP_temperature;BMP_pressure;BME280_temperature;BME280_humidity;BME280_pressure;Samples;Min_cycle;Max_cycle;Signal;HPM_P1;HPM_P2
2021/04/12 00:01:08;;;;;;;1999.90;999.90;;;3.10;99.90;;;;;;5022446;28;20136;-91
2021/04/12 00:03:47;;;;;;;1999.90;999.90;;;3.10;99.90;;;;;;5028940;28;20053;-91
2021/04/12 00:06:19;;;;;;;1999.90;999.90;;;3.10;99.90;;;;;;5035520;28;20392;-91
2021/04/12 00:08:53;;;;;;;1999.90;999.90;;;3.00;99.90;;;;;;5034035;28;20081;-91
2021/04/12 00:11:32;;;;;;;1999.90;999.90;;;3.00;99.90;;;;;;5042984;28;20049;-90
2021/04/12 00:14:04;;;;;;;1999.90;999.90;;;3.00;99.90;;;;;;5039428;28;20049;-91
2021/04/12 00:16:36;;;;;;;1999.90;999.90;;;3.00;99.90;;;;;;5014452;28;20535;-90
2021/04/12 00:19:10;;;;;;;1999.90;999.90;;;2.90;99.90;;;;;;5030879;28;20049;-91
2021/04/12 00:21:42;;;;;;;1999.90;999.90;;;2.90;99.90;;;;;;5014303;28;20050;-91
2021/04/12 00:24:16;;;;;;;1999.90;999.90;;;2.90;99.90;;;;;;5033286;28;20064;-91
2021/04/12 00:26:49;;;;;;;1999.90;999.90;;;2.90;99.90;;;;;;5033794;28;20057;-91
2021/04/12 00:29:23;;;;;;;1999.90;999.90;;;2.80;99.90;;;;;;5029256;28;20050;-92
2021/04/12 00:31:55;;;;;;;1999.90;999.90;;;2.80;99.90;;;;;;5013959;28;20053;-90
2021/04/12 00:34:30;;;;;;;1999.90;999.90;;;2.80;99.90;;;;;;5032533;28;20103;-91
2021/04/12 00:37:01;;;;;;;1999.90;999.90;;;2.70;99.90;;;;;;5033738;28;20045;-91
2021/04/12 00:39:36;;;;;;;1999.90;999.90;;;2.70;99.90;;;;;;5034159;28;20054;-91
2021/04/12 00:42:23;;;;;;;1999.90;999.90;;;2.70;99.90;;;;;;5036513;28;20096;-92
2021/04/12 00:45:14;;;;;;;1999.90;999.90;;;2.60;99.90;;;;;;5037184;28;20057;-91
2021/04/12 00:47:54;;;;;;;1999.90;999.90;;;2.70;99.90;;;;;;5037564;28;20471;-91
2021/04/12 00:50:33;;;;;;;1999.90;999.90;;;2.60;99.90;;;;;;5037374;28;20099;-91
2021/04/12 00:53:22;;;;;;;1999.90;999.90;;;2.60;99.90;;;;;;5037287;28;20447;-90
2021/04/12 00:55:53;;;;;;;1999.90;999.90;;;2.60;99.90;;;;;;5038250;28;20069;-90
2021/04/12 00:58:31;;;;;;;1999.90;999.90;;;2.50;99.90;;;;;;5037547;28;20107;-90
2021/04/12 01:01:08;;;;;;;1999.90;999.90;;;2.50;99.90;;;;;;5036965;28;20483;-90
2021/04/12 01:03:58;;;;;;;1999.90;999.90;;;2.50;99.90;;;;;;5030783;28;20112;-91
2021/04/12 01:06:43;;;;;;;1999.90;999.90;;;2.50;99.90;;;;;;5018566;28;20057;-90
2021/04/12 01:09:31;;;;;;;1999.90;999.90;;;2.50;99.90;;;;;;5038076;28;20049;-91
2021/04/12 01:12:37;;;;;;;1999.90;999.90;;;2.40;99.90;;;;;;5038278;28;20054;-90
2021/04/12 01:15:30;;;;;;;1999.90;999.90;;;2.40;99.90;;;;;;5052674;28;20072;-91
2021/04/12 01:18:36;;;;;;;1999.90;999.90;;;2.40;99.90;;;;;;5047809;28;20060;-90
2021/04/12 01:21:41;;;;;;;1999.90;999.90;;;2.30;99.90;;;;;;5043198;28;20064;-91
2021/04/12 01:24:50;;;;;;;1999.90;999.90;;;2.40;99.90;;;;;;5036592;28;20061;-90
2021/04/12 01:28:03;;;;;;;1999.90;999.90;;;2.40;99.90;;;;;;5036741;28;20103;-90
2021/04/12 01:30:56;;;;;;;1999.90;999.90;;;2.40;99.90;;;;;;5016991;28;20061;-90
2021/04/12 01:34:03;;;;;;;1999.90;999.90;;;2.30;99.90;;;;;;5017322;28;20053;-90
2021/04/12 01:36:43;;;;;;;1999.90;999.90;;;2.30;99.90;;;;;;5015098;28;20064;-90
2021/04/12 01:39:23;;;;;;;1999.90;999.90;;;2.30;99.90;;;;;;5036369;28;20077;-91
2021/04/12 01:42:01;;;;;;;1999.90;999.90;;;2.30;99.90;;;;;;5023736;28;20049;-91
2021/04/12 01:44:39;;;;;;;1999.90;999.90;;;2.30;99.90;;;;;;5038911;28;20049;-90
2021/04/12 01:47:25;;;;;;;1999.90;999.90;;;2.30;99.90;;;;;;5036286;28;20489;-91
2021/04/12 01:50:24;;;;;;;1999.90;999.90;;;2.30;99.90;;;;;;5036092;28;20061;-90
2021/04/12 01:53:22;;;;;;;1999.90;999.90;;;2.30;99.90;;;;;;5033066;28;20049;-90
2021/04/12 01:56:16;;;;;;;1999.90;999.90;;;2.30;99.90;;;;;;5028999;28;20050;-90
2021/04/12 01:58:51;;;;;;;1999.90;999.90;;;2.30;99.90;;;;;;5019357;28;20073;-91
2021/04/12 02:01:44;;;;;;;1999.90;999.90;;;2.30;99.90;;;;;;5036118;28;20081;-91
2021/04/12 02:04:27;;;;;;;1999.90;999.90;;;2.30;99.90;;;;;;5036364;28;20076;-91
2021/04/12 02:07:16;;;;;;;1999.90;999.90;;;2.30;99.90;;;;;;5035387;28;20057;-90
2021/04/12 02:09:59;;;;;;;1999.90;999.90;;;2.30;99.90;;;;;;5035897;28;20111;-91
2021/04/12 02:12:39;;;;;;;1999.90;999.90;;;2.30;99.90;;;;;;5035579;28;20076;-91
2021/04/12 02:15:17;;;;;;;1999.90;999.90;;;2.30;99.90;;;;;;5036081;28;20053;-91
2021/04/12 02:18:10;;;;;;;1999.90;999.90;;;2.30;99.90;;;;;;5039705;28;20495;-91
2021/04/12 02:20:54;;;;;;;1999.90;999.90;;;2.30;99.90;;;;;;5044745;28;20049;-91
2021/04/12 02:23:40;;;;;;;1999.90;999.90;;;2.30;99.90;;;;;;5036371;28;20080;-90
2021/04/12 02:26:32;;;;;;;1999.90;999.90;;;2.30;99.90;;;;;;5036524;28;20056;-91
2021/04/12 02:29:17;;;;;;;1999.90;999.90;;;2.20;99.90;;;;;;5035989;28;20477;-91
2021/04/12 02:31:51;;;;;;;1999.90;999.90;;;2.20;99.90;;;;;;5035509;28;20049;-90
2021/04/12 02:34:43;;;;;;;1999.90;999.90;;;2.20;99.90;;;;;;5036261;28;20049;-91
2021/04/12 02:37:30;;;;;;;1999.90;999.90;;;2.20;99.90;;;;;;5035466;28;20080;-91
2021/04/12 02:40:15;;;;;;;1999.90;999.90;;;2.20;99.90;;;;;;5035942;28;20055;-91
2021/04/12 02:42:59;;;;;;;1999.90;999.90;;;2.20;99.90;;;;;;5035484;28;20053;-91
2021/04/12 02:45:40;;;;;;;1999.90;999.90;;;2.30;99.90;;;;;;5035916;28;20050;-92
2021/04/12 02:48:31;;;;;;;1999.90;999.90;;;2.20;99.90;;;;;;5035290;28;20069;-91
2021/04/12 02:51:17;;;;;;;1999.90;999.90;;;2.30;99.90;;;;;;5034941;28;20053;-91
2021/04/12 02:54:06;;;;;;;1999.90;999.90;;;2.40;99.90;;;;;;5035080;28;20481;-91
2021/04/12 02:56:55;;;;;;;1999.90;999.90;;;2.50;99.90;;;;;;5035857;28;20084;-91
2021/04/12 02:59:35;;;;;;;1999.90;999.90;;;2.50;99.90;;;;;;5035179;28;20053;-91
2021/04/12 03:02:45;;;;;;;1999.90;999.90;;;2.60;99.90;;;;;;5034698;28;20049;-91
2021/04/12 03:05:28;;;;;;;1999.90;999.90;;;2.60;99.90;;;;;;5034691;28;20053;-91
2021/04/12 03:08:31;;;;;;;1999.90;999.90;;;2.70;99.90;;;;;;5035343;28;20127;-91
2021/04/12 03:11:17;;;;;;;1999.90;999.90;;;2.70;99.90;;;;;;5035257;28;20068;-91
2021/04/12 03:14:02;;;;;;;1999.90;999.90;;;2.70;99.90;;;;;;5035202;28;20053;-91
2021/04/12 03:16:49;;;;;;;1999.90;999.90;;;2.80;99.90;;;;;;5036549;28;20063;-90
2021/04/12 03:19:33;;;;;;;1999.90;999.90;;;2.80;99.90;;;;;;5034659;28;20403;-90
2021/04/12 03:22:26;;;;;;;1999.90;999.90;;;2.80;99.90;;;;;;5034431;28;20538;-90
2021/04/12 03:25:11;;;;;;;1999.90;999.90;;;2.80;99.90;;;;;;5034349;28;20119;-91
2021/04/12 03:28:01;;;;;;;1999.90;999.90;;;2.70;99.90;;;;;;5035860;28;20060;-90
2021/04/12 03:31:13;;;;;;;1999.90;999.90;;;2.80;99.90;;;;;;5022481;28;20054;-90
2021/04/12 03:33:58;;;;;;;1999.90;999.90;;;2.80;99.90;;;;;;5031589;28;20447;-91
2021/04/12 03:36:33;;;;;;;1999.90;999.90;;;2.80;99.90;;;;;;5025449;28;20053;-91
2021/04/12 03:39:06;;;;;;;1999.90;999.90;;;2.80;99.90;;;;;;5033878;28;20053;-91
2021/04/12 03:41:59;;;;;;;1999.90;999.90;;;2.80;99.90;;;;;;5034041;28;20049;-91
2021/04/12 03:45:05;;;;;;;1999.90;999.90;;;2.70;99.90;;;;;;5033752;28;20080;-90
2021/04/12 03:47:47;;;;;;;1999.90;999.90;;;2.70;99.90;;;;;;4998271;28;20054;-91
2021/04/12 03:50:51;;;;;;;1999.90;999.90;;;2.70;99.90;;;;;;5033500;28;20416;-91
2021/04/12 03:53:52;;;;;;;1999.90;999.90;;;2.70;99.90;;;;;;5034626;28;20057;-91
2021/04/12 03:56:42;;;;;;;1999.90;999.90;;;2.70;99.90;;;;;;5032924;28;20135;-91
2021/04/12 03:59:18;;;;;;;1999.90;999.90;;;2.60;99.90;;;;;;5034839;28;20053;-91
2021/04/12 04:02:07;;;;;;;1999.90;999.90;;;2.60;99.90;;;;;;5035819;28;20049;-92
2021/04/12 04:04:52;;;;;;;1999.90;999.90;;;2.60;99.90;;;;;;5023716;28;20506;-92
2021/04/12 04:07:37;;;;;;;1999.90;999.90;;;2.60;99.90;;;;;;5033687;28;20056;-92
2021/04/12 04:10:47;;;;;;;1999.90;999.90;;;2.60;99.90;;;;;;5033893;28;20053;-92
2021/04/12 04:13:38;;;;;;;1999.90;999.90;;;2.50;99.90;;;;;;5033767;28;20108;-91
2021/04/12 04:16:26;;;;;;;1999.90;999.90;;;2.50;99.90;;;;;;5035530;28;20115;-92
2021/04/12 04:19:01;;;;;;;1999.90;999.90;;;2.50;99.90;;;;;;5037884;28;20128;-92
2021/04/12 04:21:46;;;;;;;1999.90;999.90;;;2.40;99.90;;;;;;5038396;28;20133;-92
2021/04/12 04:24:59;;;;;;;1999.90;999.90;;;2.40;99.90;;;;;;5040847;28;20049;-92
2021/04/12 04:27:50;;;;;;;1999.90;999.90;;;2.40;99.90;;;;;;5028318;28;20124;-92
2021/04/12 04:30:58;;;;;;;1999.90;999.90;;;2.30;99.90;;;;;;5037632;28;20492;-92
2021/04/12 04:33:39;;;;;;;1999.90;999.90;;;2.30;99.90;;;;;;5013749;28;20081;-92
2021/04/12 04:36:30;;;;;;;1999.90;999.90;;;2.20;99.90;;;;;;5037260;28;20049;-92
2021/04/12 04:39:31;;;;;;;1999.90;999.90;;;2.20;99.90;;;;;;5036643;28;20060;-92
2021/04/12 04:42:13;;;;;;;1999.90;999.90;;;2.20;99.90;;;;;;5025793;28;20038;-92
2021/04/12 04:45:14;;;;;;;1999.90;999.90;;;2.20;99.90;;;;;;5036838;28;20512;-92
2021/04/12 04:48:13;;;;;;;1999.90;999.90;;;2.20;99.90;;;;;;5031278;28;20053;-92
2021/04/12 04:55:09;;;;;;;1999.90;999.90;;;2.10;99.90;;;;;;5023169;28;20072;-96
2021/04/12 04:57:59;;;;;;;1999.90;999.90;;;2.10;99.90;;;;;;5022939;28;20814;-93
2021/04/12 05:01:03;;;;;;;1999.90;999.90;;;2.20;99.90;;;;;;5034886;28;20087;-92
2021/04/12 05:03:59;;;;;;;1999.90;999.90;;;2.10;99.90;;;;;;4982132;28;20104;-92
2021/04/12 05:07:05;;;;;;;1999.90;999.90;;;2.10;99.90;;;;;;5032841;28;20546;-93
2021/04/12 05:09:59;;;;;;;1999.90;999.90;;;2.00;99.90;;;;;;5027641;28;20050;-92
2021/04/12 05:12:47;;;;;;;1999.90;999.90;;;2.10;99.90;;;;;;5037879;28;20141;-92
2021/04/12 05:15:47;;;;;;;1999.90;999.90;;;2.00;99.90;;;;;;5036795;28;20092;-93
2021/04/12 05:18:56;;;;;;;1999.90;999.90;;;2.10;99.90;;;;;;5016052;28;20053;-93
2021/04/12 05:21:56;;;;;;;1999.90;999.90;;;2.10;99.90;;;;;;5032068;28;20648;-93
2021/04/12 05:24:57;;;;;;;1999.90;999.90;;;2.20;99.90;;;;;;5026160;28;20416;-92
2021/04/12 05:27:48;;;;;;;1999.90;999.90;;;2.20;99.90;;;;;;5035277;28;20084;-93
2021/04/12 05:30:38;;;;;;;1999.90;999.90;;;2.20;99.90;;;;;;5041928;28;20049;-93
2021/04/12 05:33:23;;;;;;;1999.90;999.90;;;2.30;99.90;;;;;;5027747;28;20044;-93
2021/04/12 05:36:11;;;;;;;1999.90;999.90;;;2.40;99.90;;;;;;5049560;28;20048;-93
2021/04/12 05:39:08;;;;;;;1999.90;999.90;;;2.50;99.90;;;;;;5037995;28;20084;-93
2021/04/12 05:42:11;;;;;;;1999.90;999.90;;;2.50;99.90;;;;;;5029010;28;20030;-96
2021/04/12 05:46:13;;;;;;;1999.90;999.90;;;2.60;99.90;;;;;;4995066;28;20509;-96
2021/04/12 05:53:13;;;;;;;1999.90;999.90;;;2.60;99.90;;;;;;5034581;28;20050;-96
2021/04/12 06:15:07;;;;;;;1999.90;999.90;;;3.00;99.90;;;;;;5189911;22;20047;-96
2021/04/12 06:17:54;;;;;;;1999.90;999.90;;;3.00;99.90;;;;;;5082189;28;20098;-96
2021/04/12 06:21:08;;;;;;;1999.90;999.90;;;3.00;99.90;;;;;;5082992;28;20060;-95
2021/04/12 06:24:21;;;;;;;1999.90;999.90;;;3.00;99.90;;;;;;5034935;28;20048;-96
2021/04/12 06:27:42;;;;;;;1999.90;999.90;;;3.10;99.90;;;;;;5079904;28;20052;-96
2021/04/12 06:30:25;;;;;;;1999.90;999.90;;;3.20;99.90;;;;;;5081089;28;20475;-96
2021/04/12 06:33:12;;;;;;;1999.90;999.90;;;3.20;99.90;;;;;;5098950;28;20070;-95
2021/04/12 06:36:11;;;;;;;1999.90;999.90;;;3.20;99.90;;;;;;5099719;28;20078;-96
2021/04/12 06:39:05;;;;;;;1999.90;999.90;;;3.30;99.90;;;;;;5097520;28;20051;-96
2021/04/12 06:42:27;;;;;;;1999.90;999.90;;;3.40;99.90;;;;;;5097914;28;20044;-96
2021/04/12 06:45:37;;;;;;;1999.90;999.90;;;3.50;99.90;;;;;;5095617;28;20056;-92
2021/04/12 06:48:41;;;;;;;1999.90;999.90;;;3.60;99.90;;;;;;5095122;28;20067;-92
2021/04/12 06:51:59;;;;;;;1999.90;999.90;;;3.70;99.90;;;;;;5095552;28;20109;-93
2021/04/12 06:55:12;;;;;;;1999.90;999.90;;;3.80;99.90;;;;;;5085132;28;20160;-92
2021/04/12 06:58:23;;;;;;;1999.90;999.90;;;3.80;99.90;;;;;;5094513;28;20440;-92
2021/04/12 07:01:22;;;;;;;1999.90;999.90;;;3.80;99.90;;;;;;5075322;28;20144;-92
2021/04/12 07:04:23;;;;;;;1999.90;999.90;;;3.80;99.90;;;;;;5074953;28;20044;-92
2021/04/12 07:07:28;;;;;;;1999.90;999.90;;;3.70;99.90;;;;;;5075174;28;20143;-92
2021/04/12 07:10:37;;;;;;;1999.90;999.90;;;3.70;99.90;;;;;;5047015;28;20445;-92
2021/04/12 07:13:48;;;;;;;1999.90;999.90;;;3.70;99.90;;;;;;5083247;28;20048;-92
2021/04/12 07:16:47;;;;;;;1999.90;999.90;;;3.60;99.90;;;;;;5066339;28;20059;-92
2021/04/12 07:20:08;;;;;;;1999.90;999.90;;;3.40;99.90;;;;;;5096423;28;20528;-92
2021/04/12 07:22:53;;;;;;;1999.90;999.90;;;3.50;99.90;;;;;;5098488;28;20048;-92
2021/04/12 07:26:05;;;;;;;1999.90;999.90;;;3.60;99.90;;;;;;5096464;28;20056;-92
2021/04/12 07:29:21;;;;;;;1999.90;999.90;;;3.60;99.90;;;;;;5085711;28;20052;-92
2021/04/12 07:32:19;;;;;;;1999.90;999.90;;;3.70;99.90;;;;;;5073283;28;20078;-92
2021/04/12 07:35:16;;;;;;;1999.90;999.90;;;3.80;99.90;;;;;;5056788;28;20047;-92
2021/04/12 07:38:23;;;;;;;1999.90;999.90;;;3.80;99.90;;;;;;5114394;28;20485;-93
2021/04/12 07:41:31;;;;;;;1999.90;999.90;;;3.90;99.90;;;;;;5095137;28;20502;-92
2021/04/12 07:44:58;;;;;;;1999.90;999.90;;;4.00;99.90;;;;;;5077034;28;20066;-92
2021/04/12 07:48:12;;;;;;;1999.90;999.90;;;4.10;99.90;;;;;;5094975;28;20060;-92
2021/04/12 07:51:24;;;;;;;1999.90;999.90;;;4.20;99.90;;;;;;5099355;28;20386;-92
2021/04/12 07:54:45;;;;;;;1999.90;999.90;;;4.30;99.90;;;;;;5074245;28;20143;-92
2021/04/12 07:57:50;;;;;;;1999.90;999.90;;;4.40;99.90;;;;;;5044806;28;20036;-93
2021/04/12 08:00:41;;;;;;;1999.90;999.90;;;4.40;99.90;;;;;;5118237;28;20047;-92
2021/04/12 08:03:44;;;;;;;1999.90;999.90;;;4.50;99.90;;;;;;5100653;28;20048;-92
2021/04/12 08:07:12;;;;;;;1999.90;999.90;;;4.50;99.90;;;;;;5079460;28;20048;-93
2021/04/12 08:10:14;;;;;;;1999.90;999.90;;;4.70;99.90;;;;;;5085737;28;20079;-92
2021/04/12 08:13:12;;;;;;;1999.90;999.90;;;4.70;99.90;;;;;;5098314;28;20048;-92
2021/04/12 08:16:30;;;;;;;1999.90;999.90;;;4.70;99.90;;;;;;5097630;28;20143;-92
2021/04/12 08:19:39;;;;;;;1999.90;999.90;;;4.80;99.90;;;;;;5084087;28;20424;-92
2021/04/12 08:22:39;;;;;;;1999.90;999.90;;;4.90;99.90;;;;;;5069980;28;20059;-92
2021/04/12 08:25:47;;;;;;;1999.90;999.90;;;4.90;99.90;;;;;;5098220;28;20135;-92
2021/04/12 08:28:59;;;;;;;1999.90;999.90;;;4.90;99.90;;;;;;5084342;28;20128;-93
2021/04/12 08:32:28;;;;;;;1999.90;999.90;;;5.00;99.90;;;;;;5096779;28;20055;-91
2021/04/12 08:35:32;;;;;;;1999.90;999.90;;;5.00;99.90;;;;;;5095936;28;20446;-92
2021/04/12 08:38:47;;;;;;;1999.90;999.90;;;5.00;99.90;;;;;;5068095;28;20486;-93
2021/04/12 08:41:50;;;;;;;1999.90;999.90;;;5.20;99.90;;;;;;5083289;28;20051;-93
2021/04/12 08:44:50;;;;;;;1999.90;999.90;;;5.20;99.90;;;;;;5110298;28;20090;-92
2021/04/12 08:47:46;;;;;;;1999.90;999.90;;;5.20;99.90;;;;;;5077146;28;20143;-91
2021/04/12 08:50:46;;;;;;;1999.90;999.90;;;5.20;99.90;;;;;;5096629;28;20051;-92
2021/04/12 08:53:30;;;;;;;1999.90;999.90;;;5.20;99.90;;;;;;5097706;28;20403;-91
2021/04/12 08:56:24;;;;;;;1999.90;999.90;;;5.20;99.90;;;;;;5085599;28;20109;-92
2021/04/12 08:59:26;;;;;;;1999.90;999.90;;;5.20;99.90;;;;;;5095412;28;20047;-92
2021/04/12 09:02:41;;;;;;;1999.90;999.90;;;5.20;99.90;;;;;;5090697;28;20048;-92
2021/04/12 09:05:34;;;;;;;1999.90;999.90;;;5.20;99.90;;;;;;5015256;28;20060;-92
2021/04/12 09:08:44;;;;;;;1999.90;999.90;;;5.30;99.90;;;;;;5084144;28;20083;-92
2021/04/12 09:11:39;;;;;;;1999.90;999.90;;;5.30;99.90;;;;;;5102660;28;20048;-92
2021/04/12 09:14:42;;;;;;;1999.90;999.90;;;5.20;99.90;;;;;;5098834;28;20064;-91
2021/04/12 09:17:34;;;;;;;1999.90;999.90;;;5.30;99.90;;;;;;5096928;28;20048;-91
2021/04/12 09:20:23;;;;;;;1999.90;999.90;;;5.20;99.90;;;;;;5084504;28;20048;-93
2021/04/12 09:23:46;;;;;;;1999.90;999.90;;;5.10;99.90;;;;;;5096117;28;20044;-94
2021/04/12 09:34:56;;;;;;;1999.90;999.90;;;5.00;99.90;;;;;;4991178;28;20033;-92
2021/04/12 09:45:46;;;;;;;1999.90;999.90;;;5.20;99.90;;;;;;4869524;29;20056;-92
2021/04/12 10:04:03;;;;;;;1999.90;999.90;;;5.60;99.90;;;;;;5000563;28;20065;-91
2021/04/12 11:31:01;;;;;;;1999.90;999.90;;;7.10;99.90;;;;;;5089572;28;20367;-93
2021/04/12 11:57:29;;;;;;;1999.90;999.90;;;7.70;99.90;;;;;;4893345;29;20590;-91
2021/04/12 12:00:05;;;;;;;1999.90;999.90;;;7.50;99.90;;;;;;4947761;28;20055;-91
2021/04/12 12:02:45;;;;;;;1999.90;999.90;;;7.50;99.90;;;;;;4984326;28;20433;-91
2021/04/12 12:05:18;;;;;;;1999.90;999.90;;;7.50;99.90;;;;;;5093869;28;20079;-91
2021/04/12 12:07:58;;;;;;;1999.90;999.90;;;7.60;99.90;;;;;;5096139;28;20052;-91
2021/04/12 12:10:32;;;;;;;1999.90;999.90;;;7.60;99.90;;;;;;5109743;28;20051;-92
2021/04/12 12:13:06;;;;;;;1999.90;999.90;;;7.70;98.90;;;;;;5104876;28;20051;-92
2021/04/12 12:15:58;;;;;;;1999.90;999.90;;;7.80;98.30;;;;;;5101464;28;20405;-92
2021/04/12 12:18:29;;;;;;;1999.90;999.90;;;7.80;97.30;;;;;;5084379;28;20052;-91
2021/04/12 12:21:11;;;;;;;1999.90;999.90;;;7.80;97.70;;;;;;5099832;28;20048;-91
2021/04/12 12:23:49;;;;;;;1999.90;999.90;;;7.90;97.30;;;;;;5099011;28;20057;-91
2021/04/12 12:26:26;;;;;;;1999.90;999.90;;;8.00;96.80;;;;;;5095965;28;20059;-91
2021/04/12 12:29:09;;;;;;;1999.90;999.90;;;8.00;96.20;;;;;;5084524;28;20109;-90
2021/04/12 12:31:47;;;;;;;1999.90;999.90;;;8.20;96.70;;;;;;5093075;28;20051;-91
2021/04/12 12:34:41;;;;;;;1999.90;999.90;;;8.40;96.50;;;;;;5093210;28;20040;-91
2021/04/12 12:37:24;;;;;;;1999.90;999.90;;;8.60;95.20;;;;;;5095035;28;20551;-91
2021/04/12 12:39:55;;;;;;;1999.90;999.90;;;8.60;96.40;;;;;;5097934;28;20126;-91
2021/04/12 12:42:27;;;;;;;1999.90;999.90;;;8.80;95.50;;;;;;5097182;28;20047;-91
2021/04/12 12:45:01;;;;;;;1999.90;999.90;;;8.80;95.60;;;;;;5096389;28;20070;-91
2021/04/12 12:47:32;;;;;;;;;;;8.90;93.40;;;;;;5097778;28;20059;-91
2021/04/12 12:50:01;;;;;;;1999.90;999.90;;;9.10;94.50;;;;;;5096463;28;19984;-91
2021/04/12 12:52:32;;;;;;;1999.90;999.90;;;9.20;92.90;;;;;;5097073;28;20093;-91
2021/04/12 12:55:02;;;;;;;1999.90;999.90;;;9.40;92.80;;;;;;5095974;28;20051;-92
2021/04/12 12:57:33;;;;;;;1999.90;999.90;;;9.50;93.80;;;;;;5091504;28;20109;-92
2021/04/12 13:00:12;;;;;;;1999.90;999.90;;;9.60;91.70;;;;;;5103281;28;20138;-91
2021/04/12 13:02:41;;;;;;;1999.90;999.90;;;9.50;91.10;;;;;;5083410;28;20048;-91
2021/04/12 13:05:17;;;;;;;1999.90;999.90;;;9.50;92.20;;;;;;5088072;28;20098;-92
2021/04/12 13:07:48;;;;;;;1999.90;999.90;;;9.60;91.10;;;;;;5101661;28;20048;-91
2021/04/12 13:10:32;;;;;;;1999.90;999.90;;;9.70;91.10;;;;;;5102540;28;20431;-92
2021/04/12 13:13:00;;;;;;;1999.90;999.90;;;9.60;88.50;;;;;;5079345;28;20072;-96
2021/04/12 13:15:34;;;;;;;1999.90;999.90;;;9.50;91.30;;;;;;5086183;28;20049;-96
2021/04/12 13:18:12;;;;;;;1999.90;999.90;;;9.70;90.60;;;;;;5090433;28;20131;-95
2021/04/12 13:20:44;;;;;;;1999.90;999.90;;;9.50;91.50;;;;;;5078669;28;20059;-96
2021/04/12 13:23:17;;;;;;;1999.90;999.90;;;9.30;94.80;;;;;;5077767;28;20053;-96
2021/04/12 13:25:46;;;;;;;1999.90;999.90;;;8.80;97.00;;;;;;5077325;28;20056;-94
2021/04/12 13:28:18;;;;;;;1999.90;999.90;;;8.70;98.40;;;;;;5077281;28;20056;-95
2021/04/12 13:30:57;;;;;;;1999.90;999.90;;;8.60;98.50;;;;;;5077852;28;20056;-95
2021/04/12 13:33:31;;;;;;;1999.90;999.90;;;8.30;99.60;;;;;;5077737;28;20468;-96
2021/04/12 13:36:03;;;;;;;1999.90;999.90;;;8.20;99.90;;;;;;5077494;28;20052;-96
2021/04/12 13:38:38;;;;;;;1999.90;999.90;;;8.20;99.90;;;;;;5076570;28;20076;-92
2021/04/12 13:41:10;;;;;;;1999.90;999.90;;;8.10;99.90;;;;;;5088780;28;20047;-92
2021/04/12 13:43:41;;;;;;;1999.90;999.90;;;8.10;99.90;;;;;;5116818;28;20102;-92
2021/04/12 13:46:16;;;;;;;1999.90;999.90;;;7.80;99.90;;;;;;5089894;28;20059;-92
2021/04/12 13:48:49;;;;;;;1999.90;999.90;;;7.70;99.90;;;;;;5096480;28;20540;-91
2021/04/12 13:51:25;;;;;;;1999.90;999.90;;;7.70;99.90;;;;;;5096403;28;20121;-91
2021/04/12 13:53:56;;;;;;;1999.90;999.90;;;7.80;99.90;;;;;;5095129;28;20052;-91
2021/04/12 13:56:26;;;;;;;1999.90;999.90;;;7.60;99.90;;;;;;5100605;28;20056;-90
2021/04/12 13:59:02;;;;;;;1999.90;999.90;;;7.60;99.60;;;;;;5084520;28;20060;-92
2021/04/12 14:01:43;;;;;;;1999.90;999.90;;;7.60;99.20;;;;;;5095705;28;20048;-91
2021/04/12 14:04:13;;;;;;;1999.90;999.90;;;7.40;99.10;;;;;;5094948;28;20058;-91
2021/04/12 14:06:48;;;;;;;1999.90;999.90;;;7.40;98.80;;;;;;5076308;28;20106;-92
2021/04/12 14:09:22;;;;;;;1999.90;999.90;;;7.40;99.10;;;;;;5094456;28;20043;-92
2021/04/12 14:11:56;;;;;;;1999.90;999.90;;;7.50;99.40;;;;;;5096098;28;20076;-92
2021/04/12 14:14:27;;;;;;;1999.90;999.90;;;7.50;99.30;;;;;;5096625;28;20044;-92
2021/04/12 14:17:03;;;;;;;1999.90;999.90;;;7.50;98.50;;;;;;5095579;28;20093;-92
2021/04/12 14:19:39;;;;;;;1999.90;999.90;;;7.50;99.10;;;;;;5095568;28;20490;-92
2021/04/12 14:22:14;;;;;;;1999.90;999.90;;;7.70;98.80;;;;;;5095570;28;20054;-93
2021/04/12 14:24:45;;;;;;;1999.90;999.90;;;7.90;98.70;;;;;;5095960;28;20039;-92
2021/04/12 14:27:23;;;;;;;1999.90;999.90;;;8.20;98.10;;;;;;5096640;28;20067;-92
2021/04/12 14:30:06;;;;;;;1999.90;999.90;;;8.40;97.40;;;;;;5096450;28;20054;-92
2021/04/12 14:32:39;;;;;;;1999.90;999.90;;;8.50;97.80;;;;;;5095993;28;20048;-92
2021/04/12 14:35:09;;;;;;;1999.90;999.90;;;8.50;97.20;;;;;;5096477;28;20088;-92
2021/04/12 14:37:39;;;;;;;1999.90;999.90;;;8.60;96.30;;;;;;5096353;28;20455;-92
2021/04/12 14:40:17;;;;;;;1999.90;999.90;;;8.60;97.70;;;;;;5095901;28;20067;-91
2021/04/12 14:42:48;;;;;;;1999.90;999.90;;;9.00;97.20;;;;;;5095669;28;20055;-92
2021/04/12 14:45:22;;;;;;;1999.90;999.90;;;9.00;96.80;;;;;;5095895;28;20044;-92
2021/04/12 14:47:58;;;;;;;1999.90;999.90;;;8.90;97.50;;;;;;5096521;28;20134;-92
2021/04/12 14:50:28;;;;;;;1999.90;999.90;;;9.10;97.20;;;;;;5096119;28;20056;-93
2021/04/12 14:53:02;;;;;;;1999.90;999.90;;;8.90;95.90;;;;;;5095268;28;20052;-92
2021/04/12 14:55:33;;;;;;;1999.90;999.90;;;8.80;96.80;;;;;;5095637;28;20164;-93
2021/04/12 14:58:09;;;;;;;1999.90;999.90;;;8.80;97.50;;;;;;5094943;28;20052;-93
2021/04/12 15:00:42;;;;;;;1999.90;999.90;;;8.80;96.00;;;;;;5095427;28;20513;-92
2021/04/12 15:03:16;;;;;;;1999.90;999.90;;;8.50;95.80;;;;;;5096607;28;20078;-92
2021/04/12 15:05:46;;;;;;;1999.90;999.90;;;8.50;95.40;;;;;;5075795;28;20087;-91
2021/04/12 15:08:17;;;;;;;1999.90;999.90;;;8.70;97.30;;;;;;5077488;28;20083;-92
2021/04/12 15:10:49;;;;;;;1999.90;999.90;;;9.00;97.20;;;;;;5076904;28;20428;-92
2021/04/12 15:13:28;;;;;;;1999.90;999.90;;;9.30;97.00;;;;;;5094102;28;20051;-93
2021/04/12 15:16:11;;;;;;;1999.90;999.90;;;9.60;96.10;;;;;;5096288;28;20105;-92
2021/04/12 15:18:40;;;;;;;1999.90;999.90;;;9.60;95.10;;;;;;5095328;28;20102;-92
2021/04/12 15:21:18;;;;;;;1999.90;999.90;;;9.70;93.90;;;;;;5095319;28;20047;-92
2021/04/12 15:24:15;;;;;;;;;;;;;;;;;;;;;
2021/04/12 15:26:50;;;;;;;1999.90;999.90;;;9.90;95.50;;;;;;5094890;28;20058;-96
2021/04/12 15:29:31;;;;;;;1999.90;999.90;;;10.30;93.50;;;;;;5095736;28;20048;-95
2021/04/12 15:32:03;;;;;;;1999.90;999.90;;;10.40;94.10;;;;;;5095445;28;20055;-96
2021/04/12 15:34:37;;;;;;;1999.90;999.90;;;10.50;93.50;;;;;;5095150;28;20044;-95
2021/04/12 15:37:27;;;;;;;1999.90;999.90;;;10.60;93.90;;;;;;5095864;28;20070;-96
2021/04/12 15:40:23;;;;;;;1999.90;999.90;;;10.60;93.10;;;;;;5088778;28;20052;-90
2021/04/12 15:42:52;;;;;;;;;;;10.50;93.80;;;;;;5097260;28;20048;-90
2021/04/12 15:45:40;;;;;;;1999.90;999.90;;;10.70;94.40;;;;;;5096533;28;19923;-90
2021/04/12 15:48:16;;;;;;;1999.90;999.90;;;10.90;92.60;;;;;;5099501;28;20397;-91
2021/04/12 15:50:55;;;;;;;1999.90;999.90;;;10.90;93.20;;;;;;5089314;28;20486;-91
2021/04/12 15:53:23;;;;;;;1999.90;999.90;;;10.90;92.60;;;;;;5088832;28;20048;-91
2021/04/12 15:55:56;;;;;;;1999.90;999.90;;;10.90;93.00;;;;;;5089427;28;20079;-91
2021/04/12 15:58:28;;;;;;;1999.90;999.90;;;10.90;93.80;;;;;;5091394;28;20499;-91
2021/04/12 16:01:07;;;;;;;1999.90;999.90;;;10.90;92.70;;;;;;5088091;28;20464;-91
2021/04/12 16:03:44;;;;;;;1999.90;999.90;;;10.80;93.40;;;;;;5106135;28;20046;-90
2021/04/12 16:06:18;;;;;;;1999.90;999.90;;;10.70;93.00;;;;;;5089090;28;20048;-90
2021/04/12 16:08:51;;;;;;;1999.90;999.90;;;10.50;93.10;;;;;;5078916;28;20057;-90
2021/04/12 16:11:26;;;;;;;1999.90;999.90;;;10.40;93.30;;;;;;5096473;28;20433;-91
2021/04/12 16:14:01;;;;;;;1999.90;999.90;;;10.30;93.00;;;;;;5097692;28;20043;-91
2021/04/12 16:16:30;;;;;;;;;;;10.00;93.50;;;;;;5091657;28;20052;-90
2021/04/12 16:19:03;;;;;;;1999.90;999.90;;;9.90;94.30;;;;;;5090452;28;19924;-91
2021/04/12 16:21:37;;;;;;;1999.90;999.90;;;9.90;94.10;;;;;;5103416;28;20051;-90
2021/04/12 16:24:17;;;;;;;1999.90;999.90;;;9.90;93.40;;;;;;5094556;28;20064;-91
2021/04/12 16:26:55;;;;;;;1999.90;999.90;;;10.10;94.80;;;;;;5101601;28;20566;-91
2021/04/12 16:29:33;;;;;;;1999.90;999.90;;;10.30;93.40;;;;;;5106196;28;20048;-91
2021/04/12 16:32:03;;;;;;;1999.90;999.90;;;10.10;93.10;;;;;;5106364;28;20409;-90
2021/04/12 16:34:33;;;;;;;1999.90;999.90;;;9.90;92.70;;;;;;5096192;28;20074;-90
2021/04/12 16:37:40;;;;;;;1999.90;999.90;;;9.60;93.20;;;;;;5093351;28;20391;-91